Aviation Digital Data Service (ADDS)

Output produced by METARs form (1933 UTC 26 September 2021)
found at http://www.aviationweather.gov/metar/data/
 
METAR text: KHAF 261915Z AUTO 31004KT 8SM OVC014 16/12 A3007 RMK AO2 PWINO
Conditions at: KHAF (HALF MOON BAY , CA, US) observed 1915 UTC 26 September 2021
Temperature: 16.0°C (61°F)
Dewpoint: 12.0°C (54°F) [RH = 77%]
Pressure (altimeter): 30.07 inches Hg (1018.4 mb)
Winds: from the NW (310 degrees) at 5 MPH (4 knots; 2.1 m/s)
Visibility: 8 miles (13 km)
Ceiling: 1400 feet AGL
Clouds: overcast cloud deck at 1400 feet AGL
Weather: automated observation with no human augmentation;
there may or may not be significant weather present at this time

METAR text: KHAF 261855Z AUTO 30005KT 9SM OVC015 16/12 A3008 RMK AO2 PWINO
Conditions at: KHAF (HALF MOON BAY , CA, US) observed 1855 UTC 26 September 2021
Temperature: 16.0°C (61°F)
Dewpoint: 12.0°C (54°F) [RH = 77%]
Pressure (altimeter): 30.08 inches Hg (1018.7 mb)
Winds: from the WNW (300 degrees) at 6 MPH (5 knots; 2.6 m/s)
Visibility: 9 miles (14 km)
Ceiling: 1500 feet AGL
Clouds: overcast cloud deck at 1500 feet AGL
Weather: automated observation with no human augmentation;
there may or may not be significant weather present at this time

METAR text: KHAF 261835Z AUTO 34005KT 9SM OVC015 16/12 A3007 RMK AO2 PWINO
Conditions at: KHAF (HALF MOON BAY , CA, US) observed 1835 UTC 26 September 2021
Temperature: 16.0°C (61°F)
Dewpoint: 12.0°C (54°F) [RH = 77%]
Pressure (altimeter): 30.07 inches Hg (1018.4 mb)
Winds: from the NNW (340 degrees) at 6 MPH (5 knots; 2.6 m/s)
Visibility: 9 miles (14 km)
Ceiling: 1500 feet AGL
Clouds: overcast cloud deck at 1500 feet AGL
Weather: automated observation with no human augmentation;
there may or may not be significant weather present at this time

METAR text: KHAF 261815Z AUTO 32005G10KT 9SM OVC015 16/12 A3007 RMK AO2 PWINO
Conditions at: KHAF (HALF MOON BAY , CA, US) observed 1815 UTC 26 September 2021
Temperature: 16.0°C (61°F)
Dewpoint: 12.0°C (54°F) [RH = 77%]
Pressure (altimeter): 30.07 inches Hg (1018.4 mb)
Winds: from the NW (320 degrees) at 6 MPH (5 knots; 2.6 m/s)
gusting to 12 MPH (10 knots; 5.1 m/s)
Visibility: 9 miles (14 km)
Ceiling: 1500 feet AGL
Clouds: overcast cloud deck at 1500 feet AGL
Weather: automated observation with no human augmentation;
there may or may not be significant weather present at this time

METAR text: KHAF 261755Z AUTO 32004KT 9SM OVC015 15/12 A3007 RMK AO2 PWINO
Conditions at: KHAF (HALF MOON BAY , CA, US) observed 1755 UTC 26 September 2021
Temperature: 15.0°C (59°F)
Dewpoint: 12.0°C (54°F) [RH = 82%]
Pressure (altimeter): 30.07 inches Hg (1018.4 mb)
Winds: from the NW (320 degrees) at 5 MPH (4 knots; 2.1 m/s)
Visibility: 9 miles (14 km)
Ceiling: 1500 feet AGL
Clouds: overcast cloud deck at 1500 feet AGL
Weather: automated observation with no human augmentation;
there may or may not be significant weather present at this time

METAR text: KHAF 261735Z AUTO VRB04KT 9SM OVC015 16/12 A3007 RMK AO2 PWINO
Conditions at: KHAF (HALF MOON BAY , CA, US) observed 1735 UTC 26 September 2021
Temperature: 16.0°C (61°F)
Dewpoint: 12.0°C (54°F) [RH = 77%]
Pressure (altimeter): 30.07 inches Hg (1018.4 mb)
Winds: variable direction winds at 5 MPH (4 knots; 2.1 m/s)
Visibility: 9 miles (14 km)
Ceiling: 1500 feet AGL
Clouds: overcast cloud deck at 1500 feet AGL
Weather: automated observation with no human augmentation;
there may or may not be significant weather present at this time

METAR text: KHAF 261715Z AUTO 32006KT 9SM OVC015 15/12 A3007 RMK AO2 PWINO
Conditions at: KHAF (HALF MOON BAY , CA, US) observed 1715 UTC 26 September 2021
Temperature: 15.0°C (59°F)
Dewpoint: 12.0°C (54°F) [RH = 82%]
Pressure (altimeter): 30.07 inches Hg (1018.4 mb)
Winds: from the NW (320 degrees) at 7 MPH (6 knots; 3.1 m/s)
Visibility: 9 miles (14 km)
Ceiling: 1500 feet AGL
Clouds: overcast cloud deck at 1500 feet AGL
Weather: automated observation with no human augmentation;
there may or may not be significant weather present at this time

METAR text: KHAF 261655Z AUTO 30005KT 9SM OVC015 15/12 A3006 RMK AO2 PWINO
Conditions at: KHAF (HALF MOON BAY , CA, US) observed 1655 UTC 26 September 2021
Temperature: 15.0°C (59°F)
Dewpoint: 12.0°C (54°F) [RH = 82%]
Pressure (altimeter): 30.06 inches Hg (1018.0 mb)
Winds: from the WNW (300 degrees) at 6 MPH (5 knots; 2.6 m/s)
Visibility: 9 miles (14 km)
Ceiling: 1500 feet AGL
Clouds: overcast cloud deck at 1500 feet AGL
Weather: automated observation with no human augmentation;
there may or may not be significant weather present at this time

METAR text: KHAF 261635Z AUTO 33005KT 9SM OVC016 15/12 A3005 RMK AO2 PWINO
Conditions at: KHAF (HALF MOON BAY , CA, US) observed 1635 UTC 26 September 2021
Temperature: 15.0°C (59°F)
Dewpoint: 12.0°C (54°F) [RH = 82%]
Pressure (altimeter): 30.05 inches Hg (1017.7 mb)
Winds: from the NNW (330 degrees) at 6 MPH (5 knots; 2.6 m/s)
Visibility: 9 miles (14 km)
Ceiling: 1600 feet AGL
Clouds: overcast cloud deck at 1600 feet AGL
Weather: automated observation with no human augmentation;
there may or may not be significant weather present at this time

METAR text: KHAF 261615Z AUTO 30004KT 9SM OVC016 15/12 A3005 RMK AO2 PWINO
Conditions at: KHAF (HALF MOON BAY , CA, US) observed 1615 UTC 26 September 2021
Temperature: 15.0°C (59°F)
Dewpoint: 12.0°C (54°F) [RH = 82%]
Pressure (altimeter): 30.05 inches Hg (1017.7 mb)
Winds: from the WNW (300 degrees) at 5 MPH (4 knots; 2.1 m/s)
Visibility: 9 miles (14 km)
Ceiling: 1600 feet AGL
Clouds: overcast cloud deck at 1600 feet AGL
Weather: automated observation with no human augmentation;
there may or may not be significant weather present at this time

METAR text: KHAF 261555Z AUTO 26004KT 8SM OVC016 15/12 A3004 RMK AO2 PWINO
Conditions at: KHAF (HALF MOON BAY , CA, US) observed 1555 UTC 26 September 2021
Temperature: 15.0°C (59°F)
Dewpoint: 12.0°C (54°F) [RH = 82%]
Pressure (altimeter): 30.04 inches Hg (1017.4 mb)
Winds: from the W (260 degrees) at 5 MPH (4 knots; 2.1 m/s)
Visibility: 8 miles (13 km)
Ceiling: 1600 feet AGL
Clouds: overcast cloud deck at 1600 feet AGL
Weather: automated observation with no human augmentation;
there may or may not be significant weather present at this time

METAR text: KHAF 261535Z AUTO 30006KT 9SM OVC016 15/12 A3004 RMK AO2 PWINO
Conditions at: KHAF (HALF MOON BAY , CA, US) observed 1535 UTC 26 September 2021
Temperature: 15.0°C (59°F)
Dewpoint: 12.0°C (54°F) [RH = 82%]
Pressure (altimeter): 30.04 inches Hg (1017.4 mb)
Winds: from the WNW (300 degrees) at 7 MPH (6 knots; 3.1 m/s)
Visibility: 9 miles (14 km)
Ceiling: 1600 feet AGL
Clouds: overcast cloud deck at 1600 feet AGL
Weather: automated observation with no human augmentation;
there may or may not be significant weather present at this time

METAR text: KHAF 261515Z AUTO 36004KT 9SM OVC016 15/12 A3004 RMK AO2 PWINO
Conditions at: KHAF (HALF MOON BAY , CA, US) observed 1515 UTC 26 September 2021
Temperature: 15.0°C (59°F)
Dewpoint: 12.0°C (54°F) [RH = 82%]
Pressure (altimeter): 30.04 inches Hg (1017.4 mb)
Winds: from the N (360 degrees) at 5 MPH (4 knots; 2.1 m/s)
Visibility: 9 miles (14 km)
Ceiling: 1600 feet AGL
Clouds: overcast cloud deck at 1600 feet AGL
Weather: automated observation with no human augmentation;
there may or may not be significant weather present at this time

METAR text: KHAF 261455Z AUTO 32003KT 9SM OVC016 15/12 A3003 RMK AO2 PWINO
Conditions at: KHAF (HALF MOON BAY , CA, US) observed 1455 UTC 26 September 2021
Temperature: 15.0°C (59°F)
Dewpoint: 12.0°C (54°F) [RH = 82%]
Pressure (altimeter): 30.03 inches Hg (1017.0 mb)
Winds: from the NW (320 degrees) at 3 MPH (3 knots; 1.5 m/s)
Visibility: 9 miles (14 km)
Ceiling: 1600 feet AGL
Clouds: overcast cloud deck at 1600 feet AGL
Weather: automated observation with no human augmentation;
there may or may not be significant weather present at this time

METAR text: KHAF 261435Z AUTO 32005KT 8SM OVC016 15/12 A3003 RMK AO2 PWINO
Conditions at: KHAF (HALF MOON BAY , CA, US) observed 1435 UTC 26 September 2021
Temperature: 15.0°C (59°F)
Dewpoint: 12.0°C (54°F) [RH = 82%]
Pressure (altimeter): 30.03 inches Hg (1017.0 mb)
Winds: from the NW (320 degrees) at 6 MPH (5 knots; 2.6 m/s)
Visibility: 8 miles (13 km)
Ceiling: 1600 feet AGL
Clouds: overcast cloud deck at 1600 feet AGL
Weather: automated observation with no human augmentation;
there may or may not be significant weather present at this time

METAR text: KHAF 261415Z AUTO 30005KT 7SM OVC016 15/12 A3003 RMK AO2 PWINO
Conditions at: KHAF (HALF MOON BAY , CA, US) observed 1415 UTC 26 September 2021
Temperature: 15.0°C (59°F)
Dewpoint: 12.0°C (54°F) [RH = 82%]
Pressure (altimeter): 30.03 inches Hg (1017.0 mb)
Winds: from the WNW (300 degrees) at 6 MPH (5 knots; 2.6 m/s)
Visibility: 7 miles (11 km)
Ceiling: 1600 feet AGL
Clouds: overcast cloud deck at 1600 feet AGL
Weather: automated observation with no human augmentation;
there may or may not be significant weather present at this time

METAR text: KHAF 261355Z AUTO VRB06KT 8SM OVC016 15/12 A3003 RMK AO2 PWINO
Conditions at: KHAF (HALF MOON BAY , CA, US) observed 1355 UTC 26 September 2021
Temperature: 15.0°C (59°F)
Dewpoint: 12.0°C (54°F) [RH = 82%]
Pressure (altimeter): 30.03 inches Hg (1017.0 mb)
Winds: variable direction winds at 7 MPH (6 knots; 3.1 m/s)
Visibility: 8 miles (13 km)
Ceiling: 1600 feet AGL
Clouds: overcast cloud deck at 1600 feet AGL
Weather: automated observation with no human augmentation;
there may or may not be significant weather present at this time

METAR text: KHAF 261335Z AUTO 00000KT 9SM OVC015 15/12 A3002 RMK AO2 PWINO
Conditions at: KHAF (HALF MOON BAY , CA, US) observed 1335 UTC 26 September 2021
Temperature: 15.0°C (59°F)
Dewpoint: 12.0°C (54°F) [RH = 82%]
Pressure (altimeter): 30.02 inches Hg (1016.7 mb)
Winds: calm
Visibility: 9 miles (14 km)
Ceiling: 1500 feet AGL
Clouds: overcast cloud deck at 1500 feet AGL
Weather: automated observation with no human augmentation;
there may or may not be significant weather present at this time

METAR text: KHAF 261315Z AUTO 00000KT 9SM OVC015 15/12 A3002 RMK AO2 PWINO
Conditions at: KHAF (HALF MOON BAY , CA, US) observed 1315 UTC 26 September 2021
Temperature: 15.0°C (59°F)
Dewpoint: 12.0°C (54°F) [RH = 82%]
Pressure (altimeter): 30.02 inches Hg (1016.7 mb)
Winds: calm
Visibility: 9 miles (14 km)
Ceiling: 1500 feet AGL
Clouds: overcast cloud deck at 1500 feet AGL
Weather: automated observation with no human augmentation;
there may or may not be significant weather present at this time

METAR text: KHAF 261255Z AUTO 00000KT 9SM OVC015 15/12 A3002 RMK AO2 PWINO
Conditions at: KHAF (HALF MOON BAY , CA, US) observed 1255 UTC 26 September 2021
Temperature: 15.0°C (59°F)
Dewpoint: 12.0°C (54°F) [RH = 82%]
Pressure (altimeter): 30.02 inches Hg (1016.7 mb)
Winds: calm
Visibility: 9 miles (14 km)
Ceiling: 1500 feet AGL
Clouds: overcast cloud deck at 1500 feet AGL
Weather: automated observation with no human augmentation;
there may or may not be significant weather present at this time

METAR text: KHAF 261235Z AUTO 32006KT 9SM OVC015 15/12 A3002 RMK AO2 PWINO
Conditions at: KHAF (HALF MOON BAY , CA, US) observed 1235 UTC 26 September 2021
Temperature: 15.0°C (59°F)
Dewpoint: 12.0°C (54°F) [RH = 82%]
Pressure (altimeter): 30.02 inches Hg (1016.7 mb)
Winds: from the NW (320 degrees) at 7 MPH (6 knots; 3.1 m/s)
Visibility: 9 miles (14 km)
Ceiling: 1500 feet AGL
Clouds: overcast cloud deck at 1500 feet AGL
Weather: automated observation with no human augmentation;
there may or may not be significant weather present at this time

METAR text: KHAF 261215Z AUTO 00000KT 9SM OVC014 15/12 A3001 RMK AO2 PWINO
Conditions at: KHAF (HALF MOON BAY , CA, US) observed 1215 UTC 26 September 2021
Temperature: 15.0°C (59°F)
Dewpoint: 12.0°C (54°F) [RH = 82%]
Pressure (altimeter): 30.01 inches Hg (1016.3 mb)
Winds: calm
Visibility: 9 miles (14 km)
Ceiling: 1400 feet AGL
Clouds: overcast cloud deck at 1400 feet AGL
Weather: automated observation with no human augmentation;
there may or may not be significant weather present at this time

METAR text: KHAF 261155Z AUTO 00000KT 9SM OVC015 15/12 A3001 RMK AO2 PWINO
Conditions at: KHAF (HALF MOON BAY , CA, US) observed 1155 UTC 26 September 2021
Temperature: 15.0°C (59°F)
Dewpoint: 12.0°C (54°F) [RH = 82%]
Pressure (altimeter): 30.01 inches Hg (1016.3 mb)
Winds: calm
Visibility: 9 miles (14 km)
Ceiling: 1500 feet AGL
Clouds: overcast cloud deck at 1500 feet AGL
Weather: automated observation with no human augmentation;
there may or may not be significant weather present at this time

METAR text: KHAF 261135Z AUTO 00000KT 9SM OVC015 15/12 A3001 RMK AO2 PWINO
Conditions at: KHAF (HALF MOON BAY , CA, US) observed 1135 UTC 26 September 2021
Temperature: 15.0°C (59°F)
Dewpoint: 12.0°C (54°F) [RH = 82%]
Pressure (altimeter): 30.01 inches Hg (1016.3 mb)
Winds: calm
Visibility: 9 miles (14 km)
Ceiling: 1500 feet AGL
Clouds: overcast cloud deck at 1500 feet AGL
Weather: automated observation with no human augmentation;
there may or may not be significant weather present at this time

METAR text: KHAF 261115Z AUTO 00000KT 9SM OVC015 15/12 A3001 RMK AO2 PWINO
Conditions at: KHAF (HALF MOON BAY , CA, US) observed 1115 UTC 26 September 2021
Temperature: 15.0°C (59°F)
Dewpoint: 12.0°C (54°F) [RH = 82%]
Pressure (altimeter): 30.01 inches Hg (1016.3 mb)
Winds: calm
Visibility: 9 miles (14 km)
Ceiling: 1500 feet AGL
Clouds: overcast cloud deck at 1500 feet AGL
Weather: automated observation with no human augmentation;
there may or may not be significant weather present at this time

METAR text: KHAF 261055Z AUTO 00000KT 9SM OVC015 15/12 A3001 RMK AO2 PWINO
Conditions at: KHAF (HALF MOON BAY , CA, US) observed 1055 UTC 26 September 2021
Temperature: 15.0°C (59°F)
Dewpoint: 12.0°C (54°F) [RH = 82%]
Pressure (altimeter): 30.01 inches Hg (1016.3 mb)
Winds: calm
Visibility: 9 miles (14 km)
Ceiling: 1500 feet AGL
Clouds: overcast cloud deck at 1500 feet AGL
Weather: automated observation with no human augmentation;
there may or may not be significant weather present at this time

METAR text: KHAF 261035Z AUTO 31003KT 10SM OVC015 15/12 A3002 RMK AO2 PWINO
Conditions at: KHAF (HALF MOON BAY , CA, US) observed 1035 UTC 26 September 2021
Temperature: 15.0°C (59°F)
Dewpoint: 12.0°C (54°F) [RH = 82%]
Pressure (altimeter): 30.02 inches Hg (1016.7 mb)
Winds: from the NW (310 degrees) at 3 MPH (3 knots; 1.5 m/s)
Visibility: 10 or more miles (16+ km)
Ceiling: 1500 feet AGL
Clouds: overcast cloud deck at 1500 feet AGL
Weather: automated observation with no human augmentation;
there may or may not be significant weather present at this time

METAR text: KHAF 261015Z AUTO 00000KT 9SM OVC014 15/12 A3001 RMK AO2 PWINO
Conditions at: KHAF (HALF MOON BAY , CA, US) observed 1015 UTC 26 September 2021
Temperature: 15.0°C (59°F)
Dewpoint: 12.0°C (54°F) [RH = 82%]
Pressure (altimeter): 30.01 inches Hg (1016.3 mb)
Winds: calm
Visibility: 9 miles (14 km)
Ceiling: 1400 feet AGL
Clouds: overcast cloud deck at 1400 feet AGL
Weather: automated observation with no human augmentation;
there may or may not be significant weather present at this time

METAR text: KHAF 260955Z AUTO 00000KT 9SM OVC014 15/12 A3002 RMK AO2 PWINO
Conditions at: KHAF (HALF MOON BAY , CA, US) observed 0955 UTC 26 September 2021
Temperature: 15.0°C (59°F)
Dewpoint: 12.0°C (54°F) [RH = 82%]
Pressure (altimeter): 30.02 inches Hg (1016.7 mb)
Winds: calm
Visibility: 9 miles (14 km)
Ceiling: 1400 feet AGL
Clouds: overcast cloud deck at 1400 feet AGL
Weather: automated observation with no human augmentation;
there may or may not be significant weather present at this time

METAR text: KHAF 260935Z AUTO 00000KT 10SM OVC014 15/12 A3002 RMK AO2 PWINO
Conditions at: KHAF (HALF MOON BAY , CA, US) observed 0935 UTC 26 September 2021
Temperature: 15.0°C (59°F)
Dewpoint: 12.0°C (54°F) [RH = 82%]
Pressure (altimeter): 30.02 inches Hg (1016.7 mb)
Winds: calm
Visibility: 10 or more miles (16+ km)
Ceiling: 1400 feet AGL
Clouds: overcast cloud deck at 1400 feet AGL
Weather: automated observation with no human augmentation;
there may or may not be significant weather present at this time

METAR text: KHAF 260915Z AUTO 00000KT 9SM OVC014 15/12 A3002 RMK AO2 PWINO
Conditions at: KHAF (HALF MOON BAY , CA, US) observed 0915 UTC 26 September 2021
Temperature: 15.0°C (59°F)
Dewpoint: 12.0°C (54°F) [RH = 82%]
Pressure (altimeter): 30.02 inches Hg (1016.7 mb)
Winds: calm
Visibility: 9 miles (14 km)
Ceiling: 1400 feet AGL
Clouds: overcast cloud deck at 1400 feet AGL
Weather: automated observation with no human augmentation;
there may or may not be significant weather present at this time

METAR text: KHAF 260855Z AUTO 00000KT 9SM OVC014 14/12 A3002 RMK AO2 PWINO
Conditions at: KHAF (HALF MOON BAY , CA, US) observed 0855 UTC 26 September 2021
Temperature: 14.0°C (57°F)
Dewpoint: 12.0°C (54°F) [RH = 88%]
Pressure (altimeter): 30.02 inches Hg (1016.7 mb)
Winds: calm
Visibility: 9 miles (14 km)
Ceiling: 1400 feet AGL
Clouds: overcast cloud deck at 1400 feet AGL
Weather: automated observation with no human augmentation;
there may or may not be significant weather present at this time

METAR text: KHAF 260835Z AUTO 00000KT 9SM OVC014 15/12 A3002 RMK AO2 PWINO
Conditions at: KHAF (HALF MOON BAY , CA, US) observed 0835 UTC 26 September 2021
Temperature: 15.0°C (59°F)
Dewpoint: 12.0°C (54°F) [RH = 82%]
Pressure (altimeter): 30.02 inches Hg (1016.7 mb)
Winds: calm
Visibility: 9 miles (14 km)
Ceiling: 1400 feet AGL
Clouds: overcast cloud deck at 1400 feet AGL
Weather: automated observation with no human augmentation;
there may or may not be significant weather present at this time

METAR text: KHAF 260815Z AUTO 00000KT 9SM OVC013 15/12 A3002 RMK AO2 PWINO
Conditions at: KHAF (HALF MOON BAY , CA, US) observed 0815 UTC 26 September 2021
Temperature: 15.0°C (59°F)
Dewpoint: 12.0°C (54°F) [RH = 82%]
Pressure (altimeter): 30.02 inches Hg (1016.7 mb)
Winds: calm
Visibility: 9 miles (14 km)
Ceiling: 1300 feet AGL
Clouds: overcast cloud deck at 1300 feet AGL
Weather: automated observation with no human augmentation;
there may or may not be significant weather present at this time

METAR text: KHAF 260755Z AUTO 00000KT 9SM OVC013 14/12 A3002 RMK AO2 PWINO
Conditions at: KHAF (HALF MOON BAY , CA, US) observed 0755 UTC 26 September 2021
Temperature: 14.0°C (57°F)
Dewpoint: 12.0°C (54°F) [RH = 88%]
Pressure (altimeter): 30.02 inches Hg (1016.7 mb)
Winds: calm
Visibility: 9 miles (14 km)
Ceiling: 1300 feet AGL
Clouds: overcast cloud deck at 1300 feet AGL
Weather: automated observation with no human augmentation;
there may or may not be significant weather present at this time

METAR text: KHAF 260735Z AUTO 24004KT 9SM OVC013 14/12 A3002 RMK AO2 PWINO
Conditions at: KHAF (HALF MOON BAY , CA, US) observed 0735 UTC 26 September 2021
Temperature: 14.0°C (57°F)
Dewpoint: 12.0°C (54°F) [RH = 88%]
Pressure (altimeter): 30.02 inches Hg (1016.7 mb)
Winds: from the WSW (240 degrees) at 5 MPH (4 knots; 2.1 m/s)
Visibility: 9 miles (14 km)
Ceiling: 1300 feet AGL
Clouds: overcast cloud deck at 1300 feet AGL
Weather: automated observation with no human augmentation;
there may or may not be significant weather present at this time

METAR text: KHAF 260715Z AUTO 28003KT 9SM OVC013 14/12 A3002 RMK AO2 PWINO
Conditions at: KHAF (HALF MOON BAY , CA, US) observed 0715 UTC 26 September 2021
Temperature: 14.0°C (57°F)
Dewpoint: 12.0°C (54°F) [RH = 88%]
Pressure (altimeter): 30.02 inches Hg (1016.7 mb)
Winds: from the W (280 degrees) at 3 MPH (3 knots; 1.5 m/s)
Visibility: 9 miles (14 km)
Ceiling: 1300 feet AGL
Clouds: overcast cloud deck at 1300 feet AGL
Weather: automated observation with no human augmentation;
there may or may not be significant weather present at this time

METAR text: KHAF 260655Z AUTO 00000KT 9SM OVC012 14/12 A3002 RMK AO2 PWINO
Conditions at: KHAF (HALF MOON BAY , CA, US) observed 0655 UTC 26 September 2021
Temperature: 14.0°C (57°F)
Dewpoint: 12.0°C (54°F) [RH = 88%]
Pressure (altimeter): 30.02 inches Hg (1016.7 mb)
Winds: calm
Visibility: 9 miles (14 km)
Ceiling: 1200 feet AGL
Clouds: overcast cloud deck at 1200 feet AGL
Weather: automated observation with no human augmentation;
there may or may not be significant weather present at this time

METAR text: KHAF 260635Z AUTO 00000KT 8SM OVC012 14/12 A3002 RMK AO2 PWINO
Conditions at: KHAF (HALF MOON BAY , CA, US) observed 0635 UTC 26 September 2021
Temperature: 14.0°C (57°F)
Dewpoint: 12.0°C (54°F) [RH = 88%]
Pressure (altimeter): 30.02 inches Hg (1016.7 mb)
Winds: calm
Visibility: 8 miles (13 km)
Ceiling: 1200 feet AGL
Clouds: overcast cloud deck at 1200 feet AGL
Weather: automated observation with no human augmentation;
there may or may not be significant weather present at this time

METAR text: KHAF 260615Z AUTO 00000KT 9SM OVC012 14/12 A3003 RMK AO2 PWINO
Conditions at: KHAF (HALF MOON BAY , CA, US) observed 0615 UTC 26 September 2021
Temperature: 14.0°C (57°F)
Dewpoint: 12.0°C (54°F) [RH = 88%]
Pressure (altimeter): 30.03 inches Hg (1017.0 mb)
Winds: calm
Visibility: 9 miles (14 km)
Ceiling: 1200 feet AGL
Clouds: overcast cloud deck at 1200 feet AGL
Weather: automated observation with no human augmentation;
there may or may not be significant weather present at this time

METAR text: KHAF 260555Z AUTO 29004KT 8SM OVC012 14/12 A3003 RMK AO2 PWINO
Conditions at: KHAF (HALF MOON BAY , CA, US) observed 0555 UTC 26 September 2021
Temperature: 14.0°C (57°F)
Dewpoint: 12.0°C (54°F) [RH = 88%]
Pressure (altimeter): 30.03 inches Hg (1017.0 mb)
Winds: from the WNW (290 degrees) at 5 MPH (4 knots; 2.1 m/s)
Visibility: 8 miles (13 km)
Ceiling: 1200 feet AGL
Clouds: overcast cloud deck at 1200 feet AGL
Weather: automated observation with no human augmentation;
there may or may not be significant weather present at this time

METAR text: KHAF 260535Z AUTO 26005KT 7SM OVC012 14/12 A3002 RMK AO2 PWINO
Conditions at: KHAF (HALF MOON BAY , CA, US) observed 0535 UTC 26 September 2021
Temperature: 14.0°C (57°F)
Dewpoint: 12.0°C (54°F) [RH = 88%]
Pressure (altimeter): 30.02 inches Hg (1016.7 mb)
Winds: from the W (260 degrees) at 6 MPH (5 knots; 2.6 m/s)
Visibility: 7 miles (11 km)
Ceiling: 1200 feet AGL
Clouds: overcast cloud deck at 1200 feet AGL
Weather: automated observation with no human augmentation;
there may or may not be significant weather present at this time

METAR text: KHAF 260515Z AUTO 00000KT 9SM OVC012 14/12 A3002 RMK AO2 PWINO
Conditions at: KHAF (HALF MOON BAY , CA, US) observed 0515 UTC 26 September 2021
Temperature: 14.0°C (57°F)
Dewpoint: 12.0°C (54°F) [RH = 88%]
Pressure (altimeter): 30.02 inches Hg (1016.7 mb)
Winds: calm
Visibility: 9 miles (14 km)
Ceiling: 1200 feet AGL
Clouds: overcast cloud deck at 1200 feet AGL
Weather: automated observation with no human augmentation;
there may or may not be significant weather present at this time

METAR text: KHAF 260455Z AUTO 25005KT 7SM OVC012 14/12 A3002 RMK AO2 PWINO
Conditions at: KHAF (HALF MOON BAY , CA, US) observed 0455 UTC 26 September 2021
Temperature: 14.0°C (57°F)
Dewpoint: 12.0°C (54°F) [RH = 88%]
Pressure (altimeter): 30.02 inches Hg (1016.7 mb)
Winds: from the WSW (250 degrees) at 6 MPH (5 knots; 2.6 m/s)
Visibility: 7 miles (11 km)
Ceiling: 1200 feet AGL
Clouds: overcast cloud deck at 1200 feet AGL
Weather: automated observation with no human augmentation;
there may or may not be significant weather present at this time

METAR text: KHAF 260435Z AUTO 26005KT 6SM BR OVC012 15/13 A3002 RMK AO2 PWINO
Conditions at: KHAF (HALF MOON BAY , CA, US) observed 0435 UTC 26 September 2021
Temperature: 15.0°C (59°F)
Dewpoint: 13.0°C (55°F) [RH = 88%]
Pressure (altimeter): 30.02 inches Hg (1016.7 mb)
Winds: from the W (260 degrees) at 6 MPH (5 knots; 2.6 m/s)
Visibility: 6 miles (10 km)
Ceiling: 1200 feet AGL
Clouds: overcast cloud deck at 1200 feet AGL
Weather: BR  (mist)

METAR text: KHAF 260415Z AUTO 00000KT 7SM OVC012 15/12 A3001 RMK AO2 PWINO
Conditions at: KHAF (HALF MOON BAY , CA, US) observed 0415 UTC 26 September 2021
Temperature: 15.0°C (59°F)
Dewpoint: 12.0°C (54°F) [RH = 82%]
Pressure (altimeter): 30.01 inches Hg (1016.3 mb)
Winds: calm
Visibility: 7 miles (11 km)
Ceiling: 1200 feet AGL
Clouds: overcast cloud deck at 1200 feet AGL
Weather: automated observation with no human augmentation;
there may or may not be significant weather present at this time

METAR text: KHAF 260355Z AUTO 00000KT 7SM OVC011 15/12 A3001 RMK AO2 PWINO
Conditions at: KHAF (HALF MOON BAY , CA, US) observed 0355 UTC 26 September 2021
Temperature: 15.0°C (59°F)
Dewpoint: 12.0°C (54°F) [RH = 82%]
Pressure (altimeter): 30.01 inches Hg (1016.3 mb)
Winds: calm
Visibility: 7 miles (11 km)
Ceiling: 1100 feet AGL
Clouds: overcast cloud deck at 1100 feet AGL
Weather: automated observation with no human augmentation;
there may or may not be significant weather present at this time

METAR text: KHAF 260335Z AUTO 00000KT 6SM BR OVC010 15/13 A3000 RMK AO2 PWINO
Conditions at: KHAF (HALF MOON BAY , CA, US) observed 0335 UTC 26 September 2021
Temperature: 15.0°C (59°F)
Dewpoint: 13.0°C (55°F) [RH = 88%]
Pressure (altimeter): 30.00 inches Hg (1016.0 mb)
Winds: calm
Visibility: 6 miles (10 km)
Ceiling: 1000 feet AGL
Clouds: overcast cloud deck at 1000 feet AGL
Weather: BR  (mist)

METAR text: KHAF 260315Z AUTO 00000KT 6SM BR OVC010 14/13 A3000 RMK AO2 PWINO
Conditions at: KHAF (HALF MOON BAY , CA, US) observed 0315 UTC 26 September 2021
Temperature: 14.0°C (57°F)
Dewpoint: 13.0°C (55°F) [RH = 94%]
Pressure (altimeter): 30.00 inches Hg (1016.0 mb)
Winds: calm
Visibility: 6 miles (10 km)
Ceiling: 1000 feet AGL
Clouds: overcast cloud deck at 1000 feet AGL
Weather: BR  (mist)

METAR text: KHAF 260255Z AUTO 00000KT 7SM OVC010 14/13 A2999 RMK AO2 PWINO
Conditions at: KHAF (HALF MOON BAY , CA, US) observed 0255 UTC 26 September 2021
Temperature: 14.0°C (57°F)
Dewpoint: 13.0°C (55°F) [RH = 94%]
Pressure (altimeter): 29.99 inches Hg (1015.7 mb)
Winds: calm
Visibility: 7 miles (11 km)
Ceiling: 1000 feet AGL
Clouds: overcast cloud deck at 1000 feet AGL
Weather: automated observation with no human augmentation;
there may or may not be significant weather present at this time

METAR text: KHAF 260235Z AUTO VRB03KT 7SM OVC010 14/13 A2999 RMK AO2 PWINO
Conditions at: KHAF (HALF MOON BAY , CA, US) observed 0235 UTC 26 September 2021
Temperature: 14.0°C (57°F)
Dewpoint: 13.0°C (55°F) [RH = 94%]
Pressure (altimeter): 29.99 inches Hg (1015.7 mb)
Winds: variable direction winds at 3 MPH (3 knots; 1.5 m/s)
Visibility: 7 miles (11 km)
Ceiling: 1000 feet AGL
Clouds: overcast cloud deck at 1000 feet AGL
Weather: automated observation with no human augmentation;
there may or may not be significant weather present at this time

METAR text: KHAF 260215Z AUTO 24004KT 7SM OVC011 14/12 A2999 RMK AO2 PWINO
Conditions at: KHAF (HALF MOON BAY , CA, US) observed 0215 UTC 26 September 2021
Temperature: 14.0°C (57°F)
Dewpoint: 12.0°C (54°F) [RH = 88%]
Pressure (altimeter): 29.99 inches Hg (1015.7 mb)
Winds: from the WSW (240 degrees) at 5 MPH (4 knots; 2.1 m/s)
Visibility: 7 miles (11 km)
Ceiling: 1100 feet AGL
Clouds: overcast cloud deck at 1100 feet AGL
Weather: automated observation with no human augmentation;
there may or may not be significant weather present at this time

METAR text: KHAF 260155Z AUTO 26004KT 7SM OVC011 14/12 A2998 RMK AO2 PWINO
Conditions at: KHAF (HALF MOON BAY , CA, US) observed 0155 UTC 26 September 2021
Temperature: 14.0°C (57°F)
Dewpoint: 12.0°C (54°F) [RH = 88%]
Pressure (altimeter): 29.98 inches Hg (1015.3 mb)
Winds: from the W (260 degrees) at 5 MPH (4 knots; 2.1 m/s)
Visibility: 7 miles (11 km)
Ceiling: 1100 feet AGL
Clouds: overcast cloud deck at 1100 feet AGL
Weather: automated observation with no human augmentation;
there may or may not be significant weather present at this time

METAR text: KHAF 260135Z AUTO 31004KT 8SM OVC011 15/12 A2999 RMK AO2 PWINO
Conditions at: KHAF (HALF MOON BAY , CA, US) observed 0135 UTC 26 September 2021
Temperature: 15.0°C (59°F)
Dewpoint: 12.0°C (54°F) [RH = 82%]
Pressure (altimeter): 29.99 inches Hg (1015.7 mb)
Winds: from the NW (310 degrees) at 5 MPH (4 knots; 2.1 m/s)
Visibility: 8 miles (13 km)
Ceiling: 1100 feet AGL
Clouds: overcast cloud deck at 1100 feet AGL
Weather: automated observation with no human augmentation;
there may or may not be significant weather present at this time

METAR text: KHAF 260115Z AUTO 00000KT 8SM OVC011 15/12 A2998 RMK AO2 PWINO
Conditions at: KHAF (HALF MOON BAY , CA, US) observed 0115 UTC 26 September 2021
Temperature: 15.0°C (59°F)
Dewpoint: 12.0°C (54°F) [RH = 82%]
Pressure (altimeter): 29.98 inches Hg (1015.3 mb)
Winds: calm
Visibility: 8 miles (13 km)
Ceiling: 1100 feet AGL
Clouds: overcast cloud deck at 1100 feet AGL
Weather: automated observation with no human augmentation;
there may or may not be significant weather present at this time

METAR text: KHAF 260055Z AUTO 29004KT 7SM OVC010 15/13 A2998 RMK AO2 PWINO
Conditions at: KHAF (HALF MOON BAY , CA, US) observed 0055 UTC 26 September 2021
Temperature: 15.0°C (59°F)
Dewpoint: 13.0°C (55°F) [RH = 88%]
Pressure (altimeter): 29.98 inches Hg (1015.3 mb)
Winds: from the WNW (290 degrees) at 5 MPH (4 knots; 2.1 m/s)
Visibility: 7 miles (11 km)
Ceiling: 1000 feet AGL
Clouds: overcast cloud deck at 1000 feet AGL
Weather: automated observation with no human augmentation;
there may or may not be significant weather present at this time

METAR text: KHAF 260035Z AUTO 00000KT 8SM OVC010 15/13 A2998 RMK AO2 PWINO
Conditions at: KHAF (HALF MOON BAY , CA, US) observed 0035 UTC 26 September 2021
Temperature: 15.0°C (59°F)
Dewpoint: 13.0°C (55°F) [RH = 88%]
Pressure (altimeter): 29.98 inches Hg (1015.3 mb)
Winds: calm
Visibility: 8 miles (13 km)
Ceiling: 1000 feet AGL
Clouds: overcast cloud deck at 1000 feet AGL
Weather: automated observation with no human augmentation;
there may or may not be significant weather present at this time

METAR text: KHAF 260015Z AUTO VRB05KT 7SM OVC009 15/13 A2998 RMK AO2 PWINO
Conditions at: KHAF (HALF MOON BAY , CA, US) observed 0015 UTC 26 September 2021
Temperature: 15.0°C (59°F)
Dewpoint: 13.0°C (55°F) [RH = 88%]
Pressure (altimeter): 29.98 inches Hg (1015.3 mb)
Winds: variable direction winds at 6 MPH (5 knots; 2.6 m/s)
Visibility: 7 miles (11 km)
Ceiling: 900 feet AGL
Clouds: overcast cloud deck at 900 feet AGL
Weather: automated observation with no human augmentation;
there may or may not be significant weather present at this time

METAR text: KHAF 252355Z AUTO 30006KT 8SM OVC009 15/13 A2998 RMK AO2 PWINO
Conditions at: KHAF (HALF MOON BAY , CA, US) observed 2355 UTC 25 September 2021
Temperature: 15.0°C (59°F)
Dewpoint: 13.0°C (55°F) [RH = 88%]
Pressure (altimeter): 29.98 inches Hg (1015.3 mb)
Winds: from the WNW (300 degrees) at 7 MPH (6 knots; 3.1 m/s)
Visibility: 8 miles (13 km)
Ceiling: 900 feet AGL
Clouds: overcast cloud deck at 900 feet AGL
Weather: automated observation with no human augmentation;
there may or may not be significant weather present at this time

METAR text: KHAF 252335Z AUTO VRB05KT 8SM BKN009 OVC013 15/13 A2999 RMK AO2 PWINO
Conditions at: KHAF (HALF MOON BAY , CA, US) observed 2335 UTC 25 September 2021
Temperature: 15.0°C (59°F)
Dewpoint: 13.0°C (55°F) [RH = 88%]
Pressure (altimeter): 29.99 inches Hg (1015.7 mb)
Winds: variable direction winds at 6 MPH (5 knots; 2.6 m/s)
Visibility: 8 miles (13 km)
Ceiling: 900 feet AGL
Clouds: broken clouds at 900 feet AGL
overcast cloud deck at 1300 feet AGL
Weather: automated observation with no human augmentation;
there may or may not be significant weather present at this time

METAR text: KHAF 252315Z AUTO 30005KT 9SM OVC011 15/13 A2999 RMK AO2 PWINO
Conditions at: KHAF (HALF MOON BAY , CA, US) observed 2315 UTC 25 September 2021
Temperature: 15.0°C (59°F)
Dewpoint: 13.0°C (55°F) [RH = 88%]
Pressure (altimeter): 29.99 inches Hg (1015.7 mb)
Winds: from the WNW (300 degrees) at 6 MPH (5 knots; 2.6 m/s)
Visibility: 9 miles (14 km)
Ceiling: 1100 feet AGL
Clouds: overcast cloud deck at 1100 feet AGL
Weather: automated observation with no human augmentation;
there may or may not be significant weather present at this time

METAR text: KHAF 252255Z AUTO 30005KT 9SM BKN010 15/13 A2999 RMK AO2 PWINO
Conditions at: KHAF (HALF MOON BAY , CA, US) observed 2255 UTC 25 September 2021
Temperature: 15.0°C (59°F)
Dewpoint: 13.0°C (55°F) [RH = 88%]
Pressure (altimeter): 29.99 inches Hg (1015.7 mb)
Winds: from the WNW (300 degrees) at 6 MPH (5 knots; 2.6 m/s)
Visibility: 9 miles (14 km)
Ceiling: 1000 feet AGL
Clouds: broken clouds at 1000 feet AGL
Weather: automated observation with no human augmentation;
there may or may not be significant weather present at this time

METAR text: KHAF 252235Z AUTO 30006KT 9SM SCT011 15/13 A2999 RMK AO2 PWINO
Conditions at: KHAF (HALF MOON BAY , CA, US) observed 2235 UTC 25 September 2021
Temperature: 15.0°C (59°F)
Dewpoint: 13.0°C (55°F) [RH = 88%]
Pressure (altimeter): 29.99 inches Hg (1015.7 mb)
Winds: from the WNW (300 degrees) at 7 MPH (6 knots; 3.1 m/s)
Visibility: 9 miles (14 km)
Ceiling: at least 12,000 feet AGL
Clouds: scattered clouds at 1100 feet AGL
Weather: automated observation with no human augmentation;
there may or may not be significant weather present at this time

METAR text: KHAF 252215Z AUTO 28005KT 10SM BKN009 BKN013 15/13 A3000 RMK AO2 PWINO
Conditions at: KHAF (HALF MOON BAY , CA, US) observed 2215 UTC 25 September 2021
Temperature: 15.0°C (59°F)
Dewpoint: 13.0°C (55°F) [RH = 88%]
Pressure (altimeter): 30.00 inches Hg (1016.0 mb)
Winds: from the W (280 degrees) at 6 MPH (5 knots; 2.6 m/s)
Visibility: 10 or more miles (16+ km)
Ceiling: 900 feet AGL
Clouds: broken clouds at 900 feet AGL
broken clouds at 1300 feet AGL
Weather: automated observation with no human augmentation;
there may or may not be significant weather present at this time

METAR text: KHAF 252155Z AUTO 29007KT 10SM BKN012 15/13 A3000 RMK AO2 PWINO
Conditions at: KHAF (HALF MOON BAY , CA, US) observed 2155 UTC 25 September 2021
Temperature: 15.0°C (59°F)
Dewpoint: 13.0°C (55°F) [RH = 88%]
Pressure (altimeter): 30.00 inches Hg (1016.0 mb)
Winds: from the WNW (290 degrees) at 8 MPH (7 knots; 3.6 m/s)
Visibility: 10 or more miles (16+ km)
Ceiling: 1200 feet AGL
Clouds: broken clouds at 1200 feet AGL
Weather: automated observation with no human augmentation;
there may or may not be significant weather present at this time

METAR text: KHAF 252135Z AUTO 27006KT 8SM SCT006 SCT010 BKN013 15/13 A3000 RMK AO2 PWINO
Conditions at: KHAF (HALF MOON BAY , CA, US) observed 2135 UTC 25 September 2021
Temperature: 15.0°C (59°F)
Dewpoint: 13.0°C (55°F) [RH = 88%]
Pressure (altimeter): 30.00 inches Hg (1016.0 mb)
Winds: from the W (270 degrees) at 7 MPH (6 knots; 3.1 m/s)
Visibility: 8 miles (13 km)
Ceiling: 1300 feet AGL
Clouds: scattered clouds at 600 feet AGL
scattered clouds at 1000 feet AGL
broken clouds at 1300 feet AGL
Weather: automated observation with no human augmentation;
there may or may not be significant weather present at this time

METAR text: KHAF 252115Z AUTO 27007KT 5SM BR BKN005 OVC013 15/14 A3001 RMK AO2 PWINO
Conditions at: KHAF (HALF MOON BAY , CA, US) observed 2115 UTC 25 September 2021
Temperature: 15.0°C (59°F)
Dewpoint: 14.0°C (57°F) [RH = 94%]
Pressure (altimeter): 30.01 inches Hg (1016.3 mb)
Winds: from the W (270 degrees) at 8 MPH (7 knots; 3.6 m/s)
Visibility: 5 miles ( 8 km)
Ceiling: 500 feet AGL
Clouds: broken clouds at 500 feet AGL
overcast cloud deck at 1300 feet AGL
Weather: BR  (mist)

METAR text: KHAF 252055Z AUTO 28007KT 4SM BR 15/14 A3002 RMK AO2 PWINO
Conditions at: KHAF (HALF MOON BAY , CA, US) observed 2055 UTC 25 September 2021
Temperature: 15.0°C (59°F)
Dewpoint: 14.0°C (57°F) [RH = 94%]
Pressure (altimeter): 30.02 inches Hg (1016.7 mb)
Winds: from the W (280 degrees) at 8 MPH (7 knots; 3.6 m/s)
Visibility: 4 miles ( 6 km)
Ceiling: unknown
Clouds: missing
Weather: BR  (mist)

METAR text: KHAF 252035Z AUTO 30006KT 4SM BR BKN005 OVC009 15/14 A3002 RMK AO2 PWINO
Conditions at: KHAF (HALF MOON BAY , CA, US) observed 2035 UTC 25 September 2021
Temperature: 15.0°C (59°F)
Dewpoint: 14.0°C (57°F) [RH = 94%]
Pressure (altimeter): 30.02 inches Hg (1016.7 mb)
Winds: from the WNW (300 degrees) at 7 MPH (6 knots; 3.1 m/s)
Visibility: 4 miles ( 6 km)
Ceiling: 500 feet AGL
Clouds: broken clouds at 500 feet AGL
overcast cloud deck at 900 feet AGL
Weather: BR  (mist)

METAR text: KHAF 252015Z AUTO 28004KT 6SM BR BKN009 16/14 A3002 RMK AO2 PWINO
Conditions at: KHAF (HALF MOON BAY , CA, US) observed 2015 UTC 25 September 2021
Temperature: 16.0°C (61°F)
Dewpoint: 14.0°C (57°F) [RH = 88%]
Pressure (altimeter): 30.02 inches Hg (1016.7 mb)
Winds: from the W (280 degrees) at 5 MPH (4 knots; 2.1 m/s)
Visibility: 6 miles (10 km)
Ceiling: 900 feet AGL
Clouds: broken clouds at 900 feet AGL
Weather: BR  (mist)

METAR text: KHAF 251955Z AUTO 26004KT 6SM BR BKN008 15/14 A3002 RMK AO2 PWINO
Conditions at: KHAF (HALF MOON BAY , CA, US) observed 1955 UTC 25 September 2021
Temperature: 15.0°C (59°F)
Dewpoint: 14.0°C (57°F) [RH = 94%]
Pressure (altimeter): 30.02 inches Hg (1016.7 mb)
Winds: from the W (260 degrees) at 5 MPH (4 knots; 2.1 m/s)
Visibility: 6 miles (10 km)
Ceiling: 800 feet AGL
Clouds: broken clouds at 800 feet AGL
Weather: BR  (mist)

METAR text: KHAF 251935Z AUTO 25004KT 7SM OVC008 15/14 A3003 RMK AO2 PWINO
Conditions at: KHAF (HALF MOON BAY , CA, US) observed 1935 UTC 25 September 2021
Temperature: 15.0°C (59°F)
Dewpoint: 14.0°C (57°F) [RH = 94%]
Pressure (altimeter): 30.03 inches Hg (1017.0 mb)
Winds: from the WSW (250 degrees) at 5 MPH (4 knots; 2.1 m/s)
Visibility: 7 miles (11 km)
Ceiling: 800 feet AGL
Clouds: overcast cloud deck at 800 feet AGL
Weather: automated observation with no human augmentation;
there may or may not be significant weather present at this time

METAR text: KHAF 251915Z AUTO VRB03KT 6SM BR OVC007 15/14 A3003 RMK AO2 PWINO
Conditions at: KHAF (HALF MOON BAY , CA, US) observed 1915 UTC 25 September 2021
Temperature: 15.0°C (59°F)
Dewpoint: 14.0°C (57°F) [RH = 94%]
Pressure (altimeter): 30.03 inches Hg (1017.0 mb)
Winds: variable direction winds at 3 MPH (3 knots; 1.5 m/s)
Visibility: 6 miles (10 km)
Ceiling: 700 feet AGL
Clouds: overcast cloud deck at 700 feet AGL
Weather: BR  (mist)

METAR text: KHAF 251855Z AUTO 00000KT 6SM BR OVC007 15/14 A3003 RMK AO2 PWINO
Conditions at: KHAF (HALF MOON BAY , CA, US) observed 1855 UTC 25 September 2021
Temperature: 15.0°C (59°F)
Dewpoint: 14.0°C (57°F) [RH = 94%]
Pressure (altimeter): 30.03 inches Hg (1017.0 mb)
Winds: calm
Visibility: 6 miles (10 km)
Ceiling: 700 feet AGL
Clouds: overcast cloud deck at 700 feet AGL
Weather: BR  (mist)

METAR text: KHAF 251835Z AUTO 21003KT 7SM OVC007 15/14 A3003 RMK AO2 PWINO
Conditions at: KHAF (HALF MOON BAY , CA, US) observed 1835 UTC 25 September 2021
Temperature: 15.0°C (59°F)
Dewpoint: 14.0°C (57°F) [RH = 94%]
Pressure (altimeter): 30.03 inches Hg (1017.0 mb)
Winds: from the SSW (210 degrees) at 3 MPH (3 knots; 1.5 m/s)
Visibility: 7 miles (11 km)
Ceiling: 700 feet AGL
Clouds: overcast cloud deck at 700 feet AGL
Weather: automated observation with no human augmentation;
there may or may not be significant weather present at this time

METAR text: KHAF 251815Z AUTO 20003KT 7SM OVC007 15/14 A3003 RMK AO2 PWINO
Conditions at: KHAF (HALF MOON BAY , CA, US) observed 1815 UTC 25 September 2021
Temperature: 15.0°C (59°F)
Dewpoint: 14.0°C (57°F) [RH = 94%]
Pressure (altimeter): 30.03 inches Hg (1017.0 mb)
Winds: from the SSW (200 degrees) at 3 MPH (3 knots; 1.5 m/s)
Visibility: 7 miles (11 km)
Ceiling: 700 feet AGL
Clouds: overcast cloud deck at 700 feet AGL
Weather: automated observation with no human augmentation;
there may or may not be significant weather present at this time

METAR text: KHAF 251755Z AUTO VRB04KT 7SM OVC006 15/14 A3003 RMK AO2 PWINO
Conditions at: KHAF (HALF MOON BAY , CA, US) observed 1755 UTC 25 September 2021
Temperature: 15.0°C (59°F)
Dewpoint: 14.0°C (57°F) [RH = 94%]
Pressure (altimeter): 30.03 inches Hg (1017.0 mb)
Winds: variable direction winds at 5 MPH (4 knots; 2.1 m/s)
Visibility: 7 miles (11 km)
Ceiling: 600 feet AGL
Clouds: overcast cloud deck at 600 feet AGL
Weather: automated observation with no human augmentation;
there may or may not be significant weather present at this time

METAR text: KHAF 251735Z AUTO 00000KT 6SM BR OVC006 15/14 A3003 RMK AO2 PWINO
Conditions at: KHAF (HALF MOON BAY , CA, US) observed 1735 UTC 25 September 2021
Temperature: 15.0°C (59°F)
Dewpoint: 14.0°C (57°F) [RH = 94%]
Pressure (altimeter): 30.03 inches Hg (1017.0 mb)
Winds: calm
Visibility: 6 miles (10 km)
Ceiling: 600 feet AGL
Clouds: overcast cloud deck at 600 feet AGL
Weather: BR  (mist)

METAR text: KHAF 251715Z AUTO 00000KT 5SM BR OVC005 14/13 A3003 RMK AO2 PWINO
Conditions at: KHAF (HALF MOON BAY , CA, US) observed 1715 UTC 25 September 2021
Temperature: 14.0°C (57°F)
Dewpoint: 13.0°C (55°F) [RH = 94%]
Pressure (altimeter): 30.03 inches Hg (1017.0 mb)
Winds: calm
Visibility: 5 miles ( 8 km)
Ceiling: 500 feet AGL
Clouds: overcast cloud deck at 500 feet AGL
Weather: BR  (mist)

METAR text: KHAF 251655Z AUTO 14005KT 4SM BR OVC005 14/14 A3003 RMK AO2 PWINO
Conditions at: KHAF (HALF MOON BAY , CA, US) observed 1655 UTC 25 September 2021
Temperature: 14.0°C (57°F)
Dewpoint: 14.0°C (57°F) [RH = 100%]
Pressure (altimeter): 30.03 inches Hg (1017.0 mb)
Winds: from the SE (140 degrees) at 6 MPH (5 knots; 2.6 m/s)
Visibility: 4 miles ( 6 km)
Ceiling: 500 feet AGL
Clouds: overcast cloud deck at 500 feet AGL
Weather: BR  (mist)

METAR text: KHAF 251635Z AUTO 14005KT 3SM BR OVC005 14/13 A3003 RMK AO2 PWINO
Conditions at: KHAF (HALF MOON BAY , CA, US) observed 1635 UTC 25 September 2021
Temperature: 14.0°C (57°F)
Dewpoint: 13.0°C (55°F) [RH = 94%]
Pressure (altimeter): 30.03 inches Hg (1017.0 mb)
Winds: from the SE (140 degrees) at 6 MPH (5 knots; 2.6 m/s)
Visibility: 3 miles ( 5 km)
Ceiling: 500 feet AGL
Clouds: overcast cloud deck at 500 feet AGL
Weather: BR  (mist)

METAR text: KHAF 251615Z AUTO 16004KT 4SM BR OVC004 14/13 A3002 RMK AO2 PWINO
Conditions at: KHAF (HALF MOON BAY , CA, US) observed 1615 UTC 25 September 2021
Temperature: 14.0°C (57°F)
Dewpoint: 13.0°C (55°F) [RH = 94%]
Pressure (altimeter): 30.02 inches Hg (1016.7 mb)
Winds: from the SSE (160 degrees) at 5 MPH (4 knots; 2.1 m/s)
Visibility: 4 miles ( 6 km)
Ceiling: 400 feet AGL
Clouds: overcast cloud deck at 400 feet AGL
Weather: BR  (mist)

METAR text: KHAF 251555Z AUTO 20006KT 4SM BR OVC003 14/13 A3002 RMK AO2 PWINO
Conditions at: KHAF (HALF MOON BAY , CA, US) observed 1555 UTC 25 September 2021
Temperature: 14.0°C (57°F)
Dewpoint: 13.0°C (55°F) [RH = 94%]
Pressure (altimeter): 30.02 inches Hg (1016.7 mb)
Winds: from the SSW (200 degrees) at 7 MPH (6 knots; 3.1 m/s)
Visibility: 4 miles ( 6 km)
Ceiling: 300 feet AGL
Clouds: overcast cloud deck at 300 feet AGL
Weather: BR  (mist)

METAR text: KHAF 251535Z AUTO 20004KT 4SM BR OVC004 14/13 A3001 RMK AO2 PWINO
Conditions at: KHAF (HALF MOON BAY , CA, US) observed 1535 UTC 25 September 2021
Temperature: 14.0°C (57°F)
Dewpoint: 13.0°C (55°F) [RH = 94%]
Pressure (altimeter): 30.01 inches Hg (1016.3 mb)
Winds: from the SSW (200 degrees) at 5 MPH (4 knots; 2.1 m/s)
Visibility: 4 miles ( 6 km)
Ceiling: 400 feet AGL
Clouds: overcast cloud deck at 400 feet AGL
Weather: BR  (mist)

METAR text: KHAF 251515Z AUTO 20004KT 2 1/2SM BR OVC003 14/14 A3001 RMK AO2 PWINO
Conditions at: KHAF (HALF MOON BAY , CA, US) observed 1515 UTC 25 September 2021
Temperature: 14.0°C (57°F)
Dewpoint: 14.0°C (57°F) [RH = 100%]
Pressure (altimeter): 30.01 inches Hg (1016.3 mb)
Winds: from the SSW (200 degrees) at 5 MPH (4 knots; 2.1 m/s)
Visibility: 2.50 miles (4.02 km)
Ceiling: 300 feet AGL
Clouds: overcast cloud deck at 300 feet AGL
Weather: BR  (mist)

METAR text: KHAF 251455Z AUTO 23003KT 3SM BR OVC004 14/13 A3001 RMK AO2 PWINO
Conditions at: KHAF (HALF MOON BAY , CA, US) observed 1455 UTC 25 September 2021
Temperature: 14.0°C (57°F)
Dewpoint: 13.0°C (55°F) [RH = 94%]
Pressure (altimeter): 30.01 inches Hg (1016.3 mb)
Winds: from the SW (230 degrees) at 3 MPH (3 knots; 1.5 m/s)
Visibility: 3 miles ( 5 km)
Ceiling: 400 feet AGL
Clouds: overcast cloud deck at 400 feet AGL
Weather: BR  (mist)

METAR text: KHAF 251435Z AUTO 00000KT 3SM BR OVC004 13/13 A3000 RMK AO2 PWINO
Conditions at: KHAF (HALF MOON BAY , CA, US) observed 1435 UTC 25 September 2021
Temperature: 13.0°C (55°F)
Dewpoint: 13.0°C (55°F) [RH = 100%]
Pressure (altimeter): 30.00 inches Hg (1016.0 mb)
Winds: calm
Visibility: 3 miles ( 5 km)
Ceiling: 400 feet AGL
Clouds: overcast cloud deck at 400 feet AGL
Weather: BR  (mist)

METAR text: KHAF 251415Z AUTO 07004KT 2SM BR OVC003 13/13 A3000 RMK AO2 PWINO
Conditions at: KHAF (HALF MOON BAY , CA, US) observed 1415 UTC 25 September 2021
Temperature: 13.0°C (55°F)
Dewpoint: 13.0°C (55°F) [RH = 100%]
Pressure (altimeter): 30.00 inches Hg (1016.0 mb)
Winds: from the ENE (70 degrees) at 5 MPH (4 knots; 2.1 m/s)
Visibility: 2.00 miles (3.22 km)
Ceiling: 300 feet AGL
Clouds: overcast cloud deck at 300 feet AGL
Weather: BR  (mist)

METAR text: KHAF 251355Z AUTO 06005KT 2SM BR OVC003 13/13 A3000 RMK AO2 PWINO
Conditions at: KHAF (HALF MOON BAY , CA, US) observed 1355 UTC 25 September 2021
Temperature: 13.0°C (55°F)
Dewpoint: 13.0°C (55°F) [RH = 100%]
Pressure (altimeter): 30.00 inches Hg (1016.0 mb)
Winds: from the ENE (60 degrees) at 6 MPH (5 knots; 2.6 m/s)
Visibility: 2.00 miles (3.22 km)
Ceiling: 300 feet AGL
Clouds: overcast cloud deck at 300 feet AGL
Weather: BR  (mist)

METAR text: KHAF 251335Z AUTO 05005KT 1 3/4SM BR OVC003 13/13 A2999 RMK AO2 PWINO
Conditions at: KHAF (HALF MOON BAY , CA, US) observed 1335 UTC 25 September 2021
Temperature: 13.0°C (55°F)
Dewpoint: 13.0°C (55°F) [RH = 100%]
Pressure (altimeter): 29.99 inches Hg (1015.7 mb)
Winds: from the NE (50 degrees) at 6 MPH (5 knots; 2.6 m/s)
Visibility: 1.75 miles (2.82 km)
Ceiling: 300 feet AGL
Clouds: overcast cloud deck at 300 feet AGL
Weather: BR  (mist)

METAR text: KHAF 251315Z AUTO 00000KT 2 1/2SM BR OVC003 14/13 A2999 RMK AO2 PWINO
Conditions at: KHAF (HALF MOON BAY , CA, US) observed 1315 UTC 25 September 2021
Temperature: 14.0°C (57°F)
Dewpoint: 13.0°C (55°F) [RH = 94%]
Pressure (altimeter): 29.99 inches Hg (1015.7 mb)
Winds: calm
Visibility: 2.50 miles (4.02 km)
Ceiling: 300 feet AGL
Clouds: overcast cloud deck at 300 feet AGL
Weather: BR  (mist)

METAR text: KHAF 251255Z AUTO 00000KT 3SM BR OVC003 14/13 A2998 RMK AO2 PWINO
Conditions at: KHAF (HALF MOON BAY , CA, US) observed 1255 UTC 25 September 2021
Temperature: 14.0°C (57°F)
Dewpoint: 13.0°C (55°F) [RH = 94%]
Pressure (altimeter): 29.98 inches Hg (1015.3 mb)
Winds: calm
Visibility: 3 miles ( 5 km)
Ceiling: 300 feet AGL
Clouds: overcast cloud deck at 300 feet AGL
Weather: BR  (mist)

METAR text: KHAF 251235Z AUTO 00000KT 2 1/2SM BR OVC003 14/13 A2997 RMK AO2 PWINO
Conditions at: KHAF (HALF MOON BAY , CA, US) observed 1235 UTC 25 September 2021
Temperature: 14.0°C (57°F)
Dewpoint: 13.0°C (55°F) [RH = 94%]
Pressure (altimeter): 29.97 inches Hg (1015.0 mb)
Winds: calm
Visibility: 2.50 miles (4.02 km)
Ceiling: 300 feet AGL
Clouds: overcast cloud deck at 300 feet AGL
Weather: BR  (mist)

METAR text: KHAF 251215Z AUTO 00000KT 3SM BR OVC004 14/13 A2997 RMK AO2 PWINO
Conditions at: KHAF (HALF MOON BAY , CA, US) observed 1215 UTC 25 September 2021
Temperature: 14.0°C (57°F)
Dewpoint: 13.0°C (55°F) [RH = 94%]
Pressure (altimeter): 29.97 inches Hg (1015.0 mb)
Winds: calm
Visibility: 3 miles ( 5 km)
Ceiling: 400 feet AGL
Clouds: overcast cloud deck at 400 feet AGL
Weather: BR  (mist)

METAR text: KHAF 251155Z AUTO 00000KT 3SM BR OVC004 14/14 A2998 RMK AO2 PWINO
Conditions at: KHAF (HALF MOON BAY , CA, US) observed 1155 UTC 25 September 2021
Temperature: 14.0°C (57°F)
Dewpoint: 14.0°C (57°F) [RH = 100%]
Pressure (altimeter): 29.98 inches Hg (1015.3 mb)
Winds: calm
Visibility: 3 miles ( 5 km)
Ceiling: 400 feet AGL
Clouds: overcast cloud deck at 400 feet AGL
Weather: BR  (mist)

METAR text: KHAF 251135Z AUTO 00000KT 3SM BR OVC004 14/14 A2998 RMK AO2 PWINO
Conditions at: KHAF (HALF MOON BAY , CA, US) observed 1135 UTC 25 September 2021
Temperature: 14.0°C (57°F)
Dewpoint: 14.0°C (57°F) [RH = 100%]
Pressure (altimeter): 29.98 inches Hg (1015.3 mb)
Winds: calm
Visibility: 3 miles ( 5 km)
Ceiling: 400 feet AGL
Clouds: overcast cloud deck at 400 feet AGL
Weather: BR  (mist)

METAR text: KHAF 251115Z AUTO 00000KT 3SM BR OVC004 14/14 A2998 RMK AO2 PWINO
Conditions at: KHAF (HALF MOON BAY , CA, US) observed 1115 UTC 25 September 2021
Temperature: 14.0°C (57°F)
Dewpoint: 14.0°C (57°F) [RH = 100%]
Pressure (altimeter): 29.98 inches Hg (1015.3 mb)
Winds: calm
Visibility: 3 miles ( 5 km)
Ceiling: 400 feet AGL
Clouds: overcast cloud deck at 400 feet AGL
Weather: BR  (mist)

METAR text: KHAF 251055Z AUTO 13005KT 2SM BR OVC004 14/14 A2998 RMK AO2 PWINO
Conditions at: KHAF (HALF MOON BAY , CA, US) observed 1055 UTC 25 September 2021
Temperature: 14.0°C (57°F)
Dewpoint: 14.0°C (57°F) [RH = 100%]
Pressure (altimeter): 29.98 inches Hg (1015.3 mb)
Winds: from the SE (130 degrees) at 6 MPH (5 knots; 2.6 m/s)
Visibility: 2.00 miles (3.22 km)
Ceiling: 400 feet AGL
Clouds: overcast cloud deck at 400 feet AGL
Weather: BR  (mist)

METAR text: KHAF 251035Z AUTO 15005KT 2SM BR OVC004 14/14 A2999 RMK AO2 PWINO
Conditions at: KHAF (HALF MOON BAY , CA, US) observed 1035 UTC 25 September 2021
Temperature: 14.0°C (57°F)
Dewpoint: 14.0°C (57°F) [RH = 100%]
Pressure (altimeter): 29.99 inches Hg (1015.7 mb)
Winds: from the SSE (150 degrees) at 6 MPH (5 knots; 2.6 m/s)
Visibility: 2.00 miles (3.22 km)
Ceiling: 400 feet AGL
Clouds: overcast cloud deck at 400 feet AGL
Weather: BR  (mist)

METAR text: KHAF 251015Z AUTO 14007KT 2SM BR OVC004 14/14 A2999 RMK AO2 PWINO
Conditions at: KHAF (HALF MOON BAY , CA, US) observed 1015 UTC 25 September 2021
Temperature: 14.0°C (57°F)
Dewpoint: 14.0°C (57°F) [RH = 100%]
Pressure (altimeter): 29.99 inches Hg (1015.7 mb)
Winds: from the SE (140 degrees) at 8 MPH (7 knots; 3.6 m/s)
Visibility: 2.00 miles (3.22 km)
Ceiling: 400 feet AGL
Clouds: overcast cloud deck at 400 feet AGL
Weather: BR  (mist)

METAR text: KHAF 250955Z AUTO 16007KT 2SM BR OVC004 14/14 A3000 RMK AO2 PWINO
Conditions at: KHAF (HALF MOON BAY , CA, US) observed 0955 UTC 25 September 2021
Temperature: 14.0°C (57°F)
Dewpoint: 14.0°C (57°F) [RH = 100%]
Pressure (altimeter): 30.00 inches Hg (1016.0 mb)
Winds: from the SSE (160 degrees) at 8 MPH (7 knots; 3.6 m/s)
Visibility: 2.00 miles (3.22 km)
Ceiling: 400 feet AGL
Clouds: overcast cloud deck at 400 feet AGL
Weather: BR  (mist)

METAR text: KHAF 250935Z AUTO 15006KT 2SM BR OVC004 14/14 A3000 RMK AO2 PWINO
Conditions at: KHAF (HALF MOON BAY , CA, US) observed 0935 UTC 25 September 2021
Temperature: 14.0°C (57°F)
Dewpoint: 14.0°C (57°F) [RH = 100%]
Pressure (altimeter): 30.00 inches Hg (1016.0 mb)
Winds: from the SSE (150 degrees) at 7 MPH (6 knots; 3.1 m/s)
Visibility: 2.00 miles (3.22 km)
Ceiling: 400 feet AGL
Clouds: overcast cloud deck at 400 feet AGL
Weather: BR  (mist)

METAR text: KHAF 250915Z AUTO 17008KT 3SM BR OVC004 14/14 A3000 RMK AO2 PWINO
Conditions at: KHAF (HALF MOON BAY , CA, US) observed 0915 UTC 25 September 2021
Temperature: 14.0°C (57°F)
Dewpoint: 14.0°C (57°F) [RH = 100%]
Pressure (altimeter): 30.00 inches Hg (1016.0 mb)
Winds: from the S (170 degrees) at 9 MPH (8 knots; 4.1 m/s)
Visibility: 3 miles ( 5 km)
Ceiling: 400 feet AGL
Clouds: overcast cloud deck at 400 feet AGL
Weather: BR  (mist)

METAR text: KHAF 250855Z AUTO 16008KT 2SM BR OVC003 14/14 A3000 RMK AO2 PWINO
Conditions at: KHAF (HALF MOON BAY , CA, US) observed 0855 UTC 25 September 2021
Temperature: 14.0°C (57°F)
Dewpoint: 14.0°C (57°F) [RH = 100%]
Pressure (altimeter): 30.00 inches Hg (1016.0 mb)
Winds: from the SSE (160 degrees) at 9 MPH (8 knots; 4.1 m/s)
Visibility: 2.00 miles (3.22 km)
Ceiling: 300 feet AGL
Clouds: overcast cloud deck at 300 feet AGL
Weather: BR  (mist)

METAR text: KHAF 250835Z AUTO 16009KT 2SM BR OVC003 14/14 A3000 RMK AO2 PWINO
Conditions at: KHAF (HALF MOON BAY , CA, US) observed 0835 UTC 25 September 2021
Temperature: 14.0°C (57°F)
Dewpoint: 14.0°C (57°F) [RH = 100%]
Pressure (altimeter): 30.00 inches Hg (1016.0 mb)
Winds: from the SSE (160 degrees) at 10 MPH (9 knots; 4.6 m/s)
Visibility: 2.00 miles (3.22 km)
Ceiling: 300 feet AGL
Clouds: overcast cloud deck at 300 feet AGL
Weather: BR  (mist)

METAR text: KHAF 250815Z AUTO 16009KT 1SM BR OVC003 14/14 A3000 RMK AO2 PWINO
Conditions at: KHAF (HALF MOON BAY , CA, US) observed 0815 UTC 25 September 2021
Temperature: 14.0°C (57°F)
Dewpoint: 14.0°C (57°F) [RH = 100%]
Pressure (altimeter): 30.00 inches Hg (1016.0 mb)
Winds: from the SSE (160 degrees) at 10 MPH (9 knots; 4.6 m/s)
Visibility: 1.00 miles (1.61 km)
Ceiling: 300 feet AGL
Clouds: overcast cloud deck at 300 feet AGL
Weather: BR  (mist)

METAR text: KHAF 250755Z AUTO 17009KT 1SM BR OVC003 14/14 A3000 RMK AO2 PWINO
Conditions at: KHAF (HALF MOON BAY , CA, US) observed 0755 UTC 25 September 2021
Temperature: 14.0°C (57°F)
Dewpoint: 14.0°C (57°F) [RH = 100%]
Pressure (altimeter): 30.00 inches Hg (1016.0 mb)
Winds: from the S (170 degrees) at 10 MPH (9 knots; 4.6 m/s)
Visibility: 1.00 miles (1.61 km)
Ceiling: 300 feet AGL
Clouds: overcast cloud deck at 300 feet AGL
Weather: BR  (mist)

METAR text: KHAF 250735Z AUTO 18009KT 1/2SM BR OVC003 14/14 A3000 RMK AO2 PWINO
Conditions at: KHAF (HALF MOON BAY , CA, US) observed 0735 UTC 25 September 2021
Temperature: 14.0°C (57°F)
Dewpoint: 14.0°C (57°F) [RH = 100%]
Pressure (altimeter): 30.00 inches Hg (1016.0 mb)
Winds: from the S (180 degrees) at 10 MPH (9 knots; 4.6 m/s)
Visibility: 0.50 miles (0.80 km)
Ceiling: 300 feet AGL
Clouds: overcast cloud deck at 300 feet AGL
Weather: BR  (mist)